Terminal Aerodrome Forecast
Issued by NWS New Orleans/Baton Rouge, LA

Home | Current Version | Previous Version | Text Only | Print | Product List | Glossary On
Versions: 1 2 3 4 5 6 7 8 9 10 11 12 13 14 15 16 17 18 19 20 21 22 23
016
FTUS44 KLIX 221919 AAA
TAFBTR
TAF AMD
KBTR 221919Z 2219/2318 09006KT P6SM VCSH BKN009 BKN025
     FM230300 11007KT P6SM SHRA VCTS OVC015CB
     FM230900 VRB04KT 6SM SHRA VCTS OVC008CB
     FM231500 30005KT P6SM SHRA VCTS BKN015CB BKN045=

USA.gov is the U.S. government's official web portal to all federal, state and local government web resources and services.